createdAt,value
2022-09-20T00:00:47.626Z,2.70
2022-09-20T00:02:50.520Z,3.10
2022-09-20T00:04:53.540Z,2.77
2022-09-20T00:06:56.563Z,3.23
2022-09-20T00:09:01.355Z,2.97
2022-09-20T00:11:10.872Z,2.73
2022-09-20T00:13:16.420Z,2.70
2022-09-20T00:15:19.792Z,2.77
2022-09-20T00:17:22.998Z,3.07
2022-09-20T00:19:25.942Z,3.60
2022-09-20T00:21:30.571Z,3.23
2022-09-20T00:23:34.225Z,3.53
2022-09-20T00:25:37.153Z,4.83
2022-09-20T00:27:41.431Z,2.90
2022-09-20T00:29:44.673Z,3.00
2022-09-20T00:31:48.169Z,4.10
2022-09-20T00:34:09.230Z,3.20
2022-09-20T00:36:12.328Z,4.20
2022-09-20T00:38:16.294Z,5.10
2022-09-20T00:40:21.364Z,3.67
2022-09-20T00:42:28.877Z,3.67
2022-09-20T00:44:58.032Z,4.17
2022-09-20T00:47:23.930Z,3.27
2022-09-20T00:49:28.872Z,4.10
2022-09-20T00:51:36.332Z,3.20
2022-09-20T00:53:42.272Z,4.00
2022-09-20T00:55:48.699Z,3.97
2022-09-20T00:57:52.247Z,4.10
2022-09-20T00:59:57.157Z,3.53
2022-09-20T01:02:02.977Z,3.10
2022-09-20T01:04:06.588Z,4.07
2022-09-20T01:06:11.251Z,3.77
2022-09-20T01:08:14.546Z,3.27
2022-09-20T01:10:17.493Z,3.23
2022-09-20T01:12:22.950Z,4.20
2022-09-20T01:14:27.005Z,4.83
2022-09-20T01:16:32.316Z,4.10
2022-09-20T01:18:36.172Z,3.20
2022-09-20T01:20:42.032Z,3.53
2022-09-20T01:23:19.806Z,4.10
2022-09-20T01:25:31.659Z,3.20
2022-09-20T01:27:42.832Z,3.30
2022-09-20T01:30:00.214Z,3.50
2022-09-20T01:32:07.571Z,4.57
2022-09-20T01:34:13.689Z,4.17
2022-09-20T01:36:20.249Z,3.87
2022-09-20T01:38:31.322Z,4.00
2022-09-20T01:40:38.706Z,3.90
2022-09-20T01:42:48.137Z,4.30
2022-09-20T01:44:59.965Z,3.93
2022-09-20T01:47:10.619Z,4.03
2022-09-20T01:49:22.057Z,4.53
2022-09-20T01:52:03.549Z,4.30
2022-09-20T01:54:33.500Z,4.63
2022-09-20T01:57:25.020Z,4.20
2022-09-20T01:59:50.617Z,4.43
2022-09-20T02:02:09.431Z,4.47
2022-09-20T02:04:31.952Z,4.23
2022-09-20T02:06:42.604Z,4.00
2022-09-20T02:09:06.822Z,3.80
2022-09-20T02:11:13.723Z,4.50
2022-09-20T02:13:28.717Z,4.53
2022-09-20T02:15:48.217Z,5.50
2022-09-20T02:17:56.664Z,6.00
2022-09-20T02:20:10.182Z,4.67
2022-09-20T02:22:38.195Z,5.50
2022-09-20T02:24:46.736Z,4.87
2022-09-20T02:26:58.980Z,4.53
2022-09-20T02:29:09.757Z,4.13
2022-09-20T02:31:32.797Z,4.40
2022-09-20T02:33:47.135Z,4.60
2022-09-20T02:36:01.289Z,4.80
2022-09-20T02:38:12.719Z,4.57
2022-09-20T02:40:25.693Z,4.57
2022-09-20T02:42:32.495Z,4.60
2022-09-20T02:44:45.922Z,5.13
2022-09-20T02:46:55.582Z,5.30
2022-09-20T02:49:09.847Z,4.77
2022-09-20T02:51:17.984Z,4.90
2022-09-20T02:53:33.277Z,4.53
2022-09-20T02:55:42.765Z,4.20
2022-09-20T02:57:51.917Z,4.00
2022-09-20T03:00:00.099Z,4.80
2022-09-20T03:02:11.016Z,5.23
2022-09-20T03:04:26.904Z,4.10
2022-09-20T03:06:38.137Z,5.13
2022-09-20T03:08:50.468Z,4.30
2022-09-20T03:10:56.251Z,4.77
2022-09-20T03:13:09.790Z,4.50
2022-09-20T03:15:32.823Z,4.53
2022-09-20T03:17:45.076Z,4.87
2022-09-20T03:19:57.888Z,4.03
2022-09-20T03:22:04.666Z,4.80
2022-09-20T03:24:14.353Z,5.33
2022-09-20T03:26:28.775Z,5.00
2022-09-20T03:29:02.242Z,5.20
2022-09-20T03:31:14.257Z,4.40
2022-09-20T03:33:24.620Z,4.33
2022-09-20T03:35:39.631Z,5.20
2022-09-20T03:37:54.234Z,4.93
2022-09-20T03:40:13.700Z,4.30
2022-09-20T03:42:19.960Z,4.60
2022-09-20T03:44:43.910Z,5.10
2022-09-20T03:46:48.228Z,4.90
2022-09-20T03:49:04.646Z,4.63
2022-09-20T03:51:24.540Z,5.53
2022-09-20T03:53:53.205Z,5.67
2022-09-20T03:56:11.418Z,5.43
2022-09-20T03:58:28.058Z,6.03
2022-09-20T04:00:43.769Z,5.37
2022-09-20T04:03:13.493Z,5.70
2022-09-20T04:05:20.549Z,5.23
2022-09-20T04:07:31.081Z,6.03
2022-09-20T04:10:17.460Z,6.57
2022-09-20T04:12:28.144Z,6.47
2022-09-20T04:14:36.277Z,5.57
2022-09-20T04:16:44.101Z,5.70
2022-09-20T04:18:50.850Z,6.40
2022-09-20T04:21:00.189Z,6.50
2022-09-20T04:23:09.019Z,6.47
2022-09-20T04:25:17.067Z,6.03
2022-09-20T04:27:26.842Z,6.60
2022-09-20T04:29:37.212Z,6.30
2022-09-20T04:31:44.758Z,7.50
2022-09-20T04:33:52.011Z,6.13
2022-09-20T04:36:22.278Z,6.17
2022-09-20T04:38:26.509Z,7.00
2022-09-20T04:40:38.654Z,7.03
2022-09-20T04:43:26.397Z,5.80
2022-09-20T04:46:17.680Z,5.60
2022-09-20T04:48:42.457Z,7.40
2022-09-20T04:51:18.979Z,7.43
2022-09-20T04:53:35.807Z,6.83
2022-09-20T04:55:52.929Z,8.00
2022-09-20T04:58:18.882Z,6.80
2022-09-20T05:00:24.098Z,7.40
2022-09-20T05:02:56.472Z,7.30
2022-09-20T05:05:35.845Z,7.23
2022-09-20T05:08:21.855Z,7.80
2022-09-20T05:10:51.501Z,6.77
2022-09-20T05:13:13.142Z,7.67
2022-09-20T05:15:28.007Z,7.87
2022-09-20T05:17:39.146Z,7.70
2022-09-20T05:19:54.664Z,8.37
2022-09-20T05:22:30.192Z,7.07
2022-09-20T05:24:58.273Z,6.80
2022-09-20T05:27:25.551Z,8.00
2022-09-20T05:29:32.871Z,8.30
2022-09-20T05:31:40.454Z,8.50
2022-09-20T05:33:50.040Z,7.30
2022-09-20T05:36:02.476Z,8.00
2022-09-20T05:38:13.161Z,8.33
2022-09-20T05:40:23.263Z,7.80
2022-09-20T05:42:42.428Z,8.07
2022-09-20T05:45:05.762Z,8.00
2022-09-20T05:47:19.377Z,7.87
2022-09-20T05:49:34.491Z,7.73
2022-09-20T05:51:47.774Z,7.17
2022-09-20T05:54:15.328Z,8.07
2022-09-20T05:56:27.609Z,7.77
2022-09-20T05:58:44.153Z,6.90
2022-09-20T06:00:52.975Z,8.07
2022-09-20T06:03:00.688Z,7.57
2022-09-20T06:05:09.319Z,8.23
2022-09-20T06:07:22.839Z,8.27
2022-09-20T06:09:43.321Z,8.63
2022-09-20T06:12:14.578Z,8.10
2022-09-20T06:14:28.636Z,8.90
2022-09-20T06:16:39.926Z,8.63
2022-09-20T06:18:47.773Z,7.90
2022-09-20T06:20:58.377Z,10.00
2022-09-20T06:23:02.225Z,10.27
2022-09-20T06:25:14.786Z,8.70
2022-09-20T06:27:20.333Z,8.70
2022-09-20T06:29:30.598Z,8.50
2022-09-20T06:31:33.647Z,10.03
2022-09-20T06:33:42.668Z,8.03
2022-09-20T06:35:49.139Z,8.10
2022-09-20T06:38:13.455Z,8.17
2022-09-20T06:40:51.022Z,8.10
2022-09-20T06:42:54.955Z,6.77
2022-09-20T06:44:59.539Z,6.83
2022-09-20T06:47:03.527Z,8.73
2022-09-20T06:49:08.347Z,6.30
2022-09-20T06:51:12.470Z,6.83
2022-09-20T06:53:19.318Z,10.40
2022-09-20T06:55:29.251Z,8.60
2022-09-20T06:57:38.037Z,7.93
2022-09-20T06:59:41.093Z,6.47
2022-09-20T07:01:45.698Z,6.90
2022-09-20T07:03:49.046Z,5.90
2022-09-20T07:05:51.988Z,6.17
2022-09-20T07:07:58.303Z,6.77
2022-09-20T07:10:01.520Z,6.20
2022-09-20T07:12:05.076Z,6.57
2022-09-20T07:14:08.080Z,5.70
2022-09-20T07:16:14.121Z,6.07
2022-09-20T07:18:18.837Z,6.60
2022-09-20T07:20:21.882Z,6.20
2022-09-20T07:22:25.239Z,6.77
2022-09-20T07:24:31.043Z,6.37
2022-09-20T07:26:34.151Z,5.43
2022-09-20T07:28:37.614Z,5.93
2022-09-20T07:30:40.489Z,4.40
2022-09-20T07:32:43.661Z,4.45
2022-09-20T07:34:47.934Z,4.30
2022-09-20T07:36:52.301Z,4.40
2022-09-20T07:38:55.267Z,3.92
2022-09-20T07:41:24.105Z,5.03
2022-09-20T07:43:27.409Z,3.70
2022-09-20T07:45:31.312Z,3.90
2022-09-20T07:47:35.280Z,4.10
2022-09-20T07:49:38.282Z,3.38
2022-09-20T07:51:42.744Z,3.78
2022-09-20T07:53:46.962Z,3.15
2022-09-20T07:56:00.574Z,3.22
2022-09-20T07:58:03.530Z,3.10
2022-09-20T08:00:09.108Z,3.17
2022-09-20T08:02:18.241Z,3.47
2022-09-20T08:04:21.320Z,2.70
2022-09-20T08:06:24.711Z,2.58
2022-09-20T08:08:30.054Z,2.85
2022-09-20T08:10:33.022Z,2.95
2022-09-20T08:14:58.805Z,3.55
2022-09-20T08:17:02.241Z,2.47
2022-09-20T08:19:05.691Z,2.72
2022-09-20T08:21:11.713Z,2.83
2022-09-20T08:23:23.487Z,2.58
2022-09-20T08:25:28.426Z,1.92
2022-09-20T08:27:31.768Z,2.33
2022-09-20T08:29:34.988Z,2.42
2022-09-20T08:31:42.266Z,2.63
2022-09-20T08:33:45.307Z,2.95
2022-09-20T08:35:50.158Z,2.70
2022-09-20T08:37:55.958Z,2.28
2022-09-20T08:39:59.631Z,1.88
2022-09-20T08:42:11.859Z,2.80
2022-09-20T08:44:18.358Z,2.00
2022-09-20T08:46:25.045Z,3.17
2022-09-20T08:48:32.424Z,2.60
2022-09-20T08:50:35.751Z,2.58
2022-09-20T08:52:40.244Z,2.70
2022-09-20T08:54:44.453Z,2.50
2022-09-20T08:56:49.799Z,1.90
2022-09-20T08:58:56.263Z,2.40
2022-09-20T09:01:00.100Z,3.13
2022-09-20T09:03:06.742Z,2.97
2022-09-20T09:05:33.182Z,2.35
2022-09-20T09:07:36.201Z,2.63
2022-09-20T09:09:41.210Z,3.15
2022-09-20T09:11:46.114Z,2.47
2022-09-20T09:13:53.916Z,2.85
2022-09-20T09:16:00.942Z,2.70
2022-09-20T09:18:03.973Z,2.33
2022-09-20T09:20:17.524Z,2.20
2022-09-20T09:22:24.671Z,2.40
2022-09-20T09:24:27.789Z,2.22
2022-09-20T09:26:37.978Z,2.13
2022-09-20T09:28:40.887Z,2.13
2022-09-20T09:30:46.674Z,2.95
2022-09-20T09:32:51.318Z,1.73
2022-09-20T09:34:54.224Z,2.65
2022-09-20T09:36:57.755Z,2.30
2022-09-20T09:39:32.116Z,1.80
2022-09-20T09:41:35.739Z,1.30
2022-09-20T09:43:40.610Z,1.25
2022-09-20T09:45:43.701Z,2.30
2022-09-20T09:47:47.470Z,1.85
2022-09-20T09:50:01.015Z,1.58
2022-09-20T09:52:13.452Z,2.00
2022-09-20T09:54:19.875Z,1.58
2022-09-20T09:56:34.067Z,1.90
2022-09-20T09:58:47.605Z,2.42
2022-09-20T10:00:52.254Z,2.85
2022-09-20T10:03:11.921Z,1.83
2022-09-20T10:05:20.238Z,2.17
2022-09-20T10:07:30.395Z,1.40
2022-09-20T10:09:51.986Z,2.05
2022-09-20T10:12:05.659Z,2.08
2022-09-20T10:14:18.614Z,2.10
2022-09-20T10:16:31.508Z,1.52
2022-09-20T10:18:40.544Z,1.67
2022-09-20T10:20:53.369Z,1.50
2022-09-20T10:23:34.565Z,1.77
2022-09-20T10:25:36.352Z,2.22
2022-09-20T10:27:53.996Z,2.60
2022-09-20T10:30:05.506Z,2.45
2022-09-20T10:32:21.109Z,1.60
2022-09-20T10:34:45.272Z,1.63
2022-09-20T10:36:57.392Z,1.20
2022-09-20T10:39:07.274Z,1.30
2022-09-20T10:41:47.065Z,1.65
2022-09-20T10:44:05.610Z,1.80
2022-09-20T10:46:31.999Z,1.48
2022-09-20T10:48:42.642Z,1.73
2022-09-20T10:50:49.801Z,1.95
2022-09-20T10:53:08.892Z,1.42
2022-09-20T10:55:25.527Z,1.50
2022-09-20T10:58:08.645Z,1.67
2022-09-20T11:00:22.634Z,1.55
2022-09-20T11:02:58.269Z,1.90
2022-09-20T11:05:11.365Z,1.92
2022-09-20T11:07:19.838Z,1.50
2022-09-20T11:09:28.906Z,1.25
2022-09-20T11:11:35.657Z,1.65
2022-09-20T11:13:42.191Z,1.80
2022-09-20T11:15:48.201Z,1.25
2022-09-20T11:18:00.052Z,1.25
2022-09-20T11:20:08.067Z,1.40
2022-09-20T11:22:26.628Z,1.27
2022-09-20T11:24:33.489Z,1.25
2022-09-20T11:26:41.851Z,2.20
2022-09-20T11:28:51.418Z,1.48
2022-09-20T11:31:01.231Z,1.25
2022-09-20T11:33:09.771Z,1.60
2022-09-20T11:35:30.310Z,1.55
2022-09-20T11:37:35.045Z,1.38
2022-09-20T11:39:42.523Z,1.67
2022-09-20T11:41:45.924Z,2.20
2022-09-20T11:43:49.579Z,1.58
2022-09-20T11:45:55.941Z,1.75
2022-09-20T11:48:02.682Z,1.30
2022-09-20T11:50:43.124Z,1.70
2022-09-20T11:52:58.683Z,1.90
2022-09-20T11:55:22.740Z,1.35
2022-09-20T11:57:26.047Z,1.85
2022-09-20T11:59:31.936Z,1.45
2022-09-20T12:01:36.817Z,2.00
2022-09-20T12:03:41.151Z,1.60
2022-09-20T12:05:44.443Z,1.27
2022-09-20T12:07:47.417Z,1.42
2022-09-20T12:09:54.573Z,1.35
2022-09-20T12:11:59.786Z,1.55
2022-09-20T12:14:06.301Z,1.90
2022-09-20T12:16:16.576Z,2.33
2022-09-20T12:18:38.217Z,1.77
2022-09-20T12:21:00.522Z,1.73
2022-09-20T12:23:36.906Z,1.30
2022-09-20T12:25:41.261Z,1.83
2022-09-20T12:28:00.404Z,1.25
2022-09-20T12:30:16.843Z,1.95
2022-09-20T12:32:55.145Z,1.40
2022-09-20T12:34:58.914Z,1.60
2022-09-20T12:37:26.279Z,1.20
2022-09-20T12:39:30.514Z,1.02
2022-09-20T12:41:51.410Z,2.30
2022-09-20T12:44:22.219Z,1.70
2022-09-20T12:46:31.203Z,1.55
2022-09-20T12:48:38.533Z,1.52
2022-09-20T12:50:59.317Z,1.13
2022-09-20T12:53:07.229Z,1.65
2022-09-20T12:55:11.328Z,0.90
2022-09-20T12:57:20.073Z,2.05
2022-09-20T12:59:27.264Z,1.52
2022-09-20T13:01:38.225Z,1.05
2022-09-20T13:03:42.481Z,1.35
2022-09-20T13:05:46.793Z,1.67
2022-09-20T13:07:56.557Z,1.58
2022-09-20T13:10:00.054Z,1.40
2022-09-20T13:12:03.970Z,2.35
2022-09-20T13:14:12.485Z,1.20
2022-09-20T13:16:22.328Z,1.42
2022-09-20T13:18:26.395Z,1.45
2022-09-20T13:20:31.496Z,1.17
2022-09-20T13:22:37.765Z,1.60
2022-09-20T13:24:43.142Z,1.90
2022-09-20T13:26:48.651Z,1.35
2022-09-20T13:28:54.461Z,1.00
2022-09-20T13:31:30.818Z,1.10
2022-09-20T13:33:34.378Z,1.30
2022-09-20T13:35:37.327Z,1.48
2022-09-20T13:37:43.685Z,1.40
2022-09-20T13:39:46.670Z,1.23
2022-09-20T13:41:50.741Z,1.00
2022-09-20T13:43:53.696Z,1.48
2022-09-20T13:45:58.474Z,1.50
2022-09-20T13:48:03.336Z,0.95
2022-09-20T13:50:18.201Z,1.65
2022-09-20T13:52:26.472Z,1.33
2022-09-20T13:54:31.492Z,2.60
2022-09-20T13:56:34.544Z,1.38
2022-09-20T13:58:38.660Z,1.77
2022-09-20T14:00:48.702Z,1.80
2022-09-20T14:02:56.735Z,1.05
2022-09-20T14:05:03.168Z,1.13
2022-09-20T14:07:08.363Z,1.30
2022-09-20T14:09:21.580Z,1.35
2022-09-20T14:11:27.981Z,1.85
2022-09-20T14:13:32.540Z,1.50
2022-09-20T14:15:38.209Z,1.40
2022-09-20T14:17:41.527Z,1.95
2022-09-20T14:19:46.155Z,1.40
2022-09-20T14:21:50.807Z,1.20
2022-09-20T14:23:55.239Z,1.25
2022-09-20T14:26:23.921Z,1.30
2022-09-20T14:28:28.941Z,1.60
2022-09-20T14:30:35.115Z,1.10
2022-09-20T14:32:45.921Z,1.20
2022-09-20T14:34:53.574Z,1.85
2022-09-20T14:37:05.132Z,1.10
2022-09-20T14:39:16.363Z,1.20
2022-09-20T14:41:28.878Z,1.30
2022-09-20T14:43:34.957Z,1.65
2022-09-20T14:45:39.438Z,1.42
2022-09-20T14:47:59.214Z,1.27
2022-09-20T14:50:03.853Z,1.95
2022-09-20T14:52:36.567Z,1.33
2022-09-20T14:55:01.764Z,1.02
2022-09-20T14:57:04.881Z,1.08
2022-09-20T14:59:21.889Z,1.85
2022-09-20T15:01:25.970Z,1.45
2022-09-20T15:03:31.267Z,1.67
2022-09-20T15:05:34.234Z,1.40
2022-09-20T15:07:39.228Z,1.60
2022-09-20T15:09:42.161Z,1.42
2022-09-20T15:11:45.066Z,1.17
2022-09-20T15:13:47.964Z,1.38
2022-09-20T15:15:52.615Z,1.38
2022-09-20T15:17:55.557Z,1.25
2022-09-20T15:20:00.051Z,1.10
2022-09-20T15:22:03.500Z,1.52
2022-09-20T15:24:07.921Z,1.58
2022-09-20T15:26:13.244Z,1.20
2022-09-20T15:28:17.926Z,1.38
2022-09-20T15:30:21.129Z,1.13
2022-09-20T15:32:24.186Z,1.45
2022-09-20T15:34:27.841Z,1.35
2022-09-20T15:36:32.182Z,1.40
2022-09-20T15:38:35.659Z,1.27
2022-09-20T15:40:42.019Z,1.23
2022-09-20T15:42:46.493Z,1.63
2022-09-20T15:44:51.279Z,1.00
2022-09-20T15:46:55.406Z,1.55
2022-09-20T15:49:00.959Z,1.30
2022-09-20T15:51:10.406Z,1.38
2022-09-20T15:53:13.390Z,1.00
2022-09-20T15:55:16.489Z,1.55
2022-09-20T15:57:21.378Z,1.73
2022-09-20T15:59:24.237Z,1.58
2022-09-20T16:01:28.211Z,1.25
2022-09-20T16:03:31.228Z,1.30
2022-09-20T16:05:34.626Z,1.60
2022-09-20T16:07:37.635Z,1.15
2022-09-20T16:09:40.606Z,1.15
2022-09-20T16:11:43.567Z,1.27
2022-09-20T16:13:48.041Z,0.93
2022-09-20T16:15:55.097Z,2.00
2022-09-20T16:18:17.662Z,1.05
2022-09-20T16:20:20.623Z,2.33
2022-09-20T16:22:23.527Z,1.50
2022-09-20T16:24:30.127Z,1.33
2022-09-20T16:26:34.453Z,1.48
2022-09-20T16:28:37.339Z,0.90
2022-09-20T16:30:42.066Z,1.20
2022-09-20T16:32:45.091Z,1.10
2022-09-20T16:34:49.822Z,1.15
2022-09-20T16:36:54.177Z,1.02
2022-09-20T16:38:57.519Z,1.52
2022-09-20T16:41:01.771Z,1.63
2022-09-20T16:43:08.794Z,1.35
2022-09-20T16:45:13.418Z,1.10
2022-09-20T16:47:23.049Z,1.13
2022-09-20T16:49:28.008Z,1.10
2022-09-20T16:51:33.323Z,1.02
2022-09-20T16:53:36.834Z,1.73
2022-09-20T16:55:45.185Z,1.35
2022-09-20T16:57:49.969Z,1.20
2022-09-20T16:59:55.751Z,1.50
2022-09-20T17:01:58.776Z,1.10
2022-09-20T17:04:05.246Z,1.35
2022-09-20T17:06:12.928Z,1.30
2022-09-20T17:08:15.820Z,1.25
2022-09-20T17:10:18.825Z,1.05
2022-09-20T17:12:25.042Z,1.45
2022-09-20T17:14:28.139Z,1.73
2022-09-20T17:16:34.240Z,1.38
2022-09-20T17:18:42.981Z,1.27
2022-09-20T17:20:49.116Z,1.13
2022-09-20T17:22:54.602Z,1.15
2022-09-20T17:24:57.953Z,1.65
2022-09-20T17:27:01.700Z,1.20
2022-09-20T17:29:06.680Z,1.50
2022-09-20T17:31:14.039Z,1.40
2022-09-20T17:33:17.335Z,1.70
2022-09-20T17:35:20.363Z,1.55
2022-09-20T17:37:24.734Z,1.50
2022-09-20T17:39:27.650Z,1.48
2022-09-20T17:41:31.131Z,1.17
2022-09-20T17:43:34.182Z,1.42
2022-09-20T17:45:37.053Z,1.75
2022-09-20T17:47:41.912Z,16.17
2022-09-20T17:49:45.074Z,11.20
2022-09-20T17:51:49.636Z,10.98
2022-09-20T17:53:55.719Z,6.83
2022-09-20T17:55:59.199Z,6.07
2022-09-20T17:58:02.287Z,3.55
2022-09-20T18:00:05.961Z,2.65
2022-09-20T18:02:10.313Z,2.05
2022-09-20T18:04:13.788Z,2.00
2022-09-20T18:06:19.897Z,2.30
2022-09-20T18:08:22.975Z,2.30
2022-09-20T18:10:28.900Z,2.78
2022-09-20T18:12:31.865Z,2.10
2022-09-20T18:14:34.822Z,2.35
2022-09-20T18:16:38.466Z,2.30
2022-09-20T18:18:42.319Z,2.92
2022-09-20T18:20:45.317Z,3.20
2022-09-20T18:22:50.399Z,2.70
2022-09-20T18:24:53.281Z,2.50
2022-09-20T18:26:57.576Z,2.37
2022-09-20T18:29:02.003Z,2.43
2022-09-20T18:31:13.098Z,2.20
2022-09-20T18:33:17.545Z,3.13
2022-09-20T18:35:20.528Z,2.13
2022-09-20T18:37:23.523Z,3.67
2022-09-20T18:39:28.118Z,3.60
2022-09-20T18:41:33.196Z,4.20
2022-09-20T18:43:37.542Z,3.20
2022-09-20T18:45:40.936Z,3.53
2022-09-20T18:47:44.600Z,3.77
2022-09-20T18:49:47.616Z,3.53
2022-09-20T18:51:50.820Z,4.30
2022-09-20T18:53:53.970Z,3.90
2022-09-20T18:55:57.471Z,3.07
2022-09-20T18:58:03.086Z,3.10
2022-09-20T19:00:10.166Z,5.13
2022-09-20T19:02:42.108Z,5.00
2022-09-20T19:04:53.240Z,5.03
2022-09-20T19:07:01.932Z,3.67
2022-09-20T19:09:10.029Z,3.80
2022-09-20T19:11:22.781Z,3.80
2022-09-20T19:13:36.770Z,3.43
2022-09-20T19:15:49.196Z,3.70
2022-09-20T19:18:02.665Z,4.13
2022-09-20T19:20:11.445Z,4.13
2022-09-20T19:22:24.621Z,4.90
2022-09-20T19:24:56.752Z,3.97
2022-09-20T19:27:00.257Z,3.83
2022-09-20T19:29:03.648Z,3.43
2022-09-20T19:31:13.125Z,3.90
2022-09-20T19:33:18.529Z,3.87
2022-09-20T19:35:27.212Z,4.70
2022-09-20T19:37:36.565Z,5.70
2022-09-20T19:39:50.803Z,5.00
2022-09-20T19:41:59.700Z,5.80
2022-09-20T19:44:14.325Z,6.17
2022-09-20T19:46:32.029Z,5.10
2022-09-20T19:48:39.377Z,5.00
2022-09-20T19:50:45.351Z,5.20
2022-09-20T19:52:48.799Z,5.43
2022-09-20T19:54:53.068Z,5.17
2022-09-20T19:56:59.953Z,4.53
2022-09-20T19:59:04.089Z,4.97
2022-09-20T20:01:11.948Z,5.37
2022-09-20T20:03:17.526Z,4.67
2022-09-20T20:05:25.492Z,4.83
2022-09-20T20:07:31.820Z,4.43
2022-09-20T20:09:40.053Z,3.67
2022-09-20T20:11:49.588Z,4.73
2022-09-20T20:14:07.935Z,4.33
2022-09-20T20:16:16.424Z,5.80
2022-09-20T20:18:24.958Z,5.60
2022-09-20T20:20:33.862Z,4.27
2022-09-20T20:22:59.002Z,4.37
2022-09-20T20:25:02.593Z,5.00
2022-09-20T20:27:05.925Z,4.73
2022-09-20T20:29:12.057Z,4.93
2022-09-20T20:31:15.330Z,5.10
2022-09-20T20:33:19.321Z,4.73
2022-09-20T20:35:23.896Z,6.00
2022-09-20T20:37:28.206Z,5.53
2022-09-20T20:39:31.653Z,4.47
2022-09-20T20:41:34.922Z,4.40
2022-09-20T20:43:39.205Z,5.30
2022-09-20T20:45:50.996Z,4.57
2022-09-20T20:47:58.430Z,4.53
2022-09-20T20:50:01.378Z,5.67
2022-09-20T20:52:05.810Z,4.93
2022-09-20T20:54:10.003Z,5.60
2022-09-20T20:56:14.965Z,5.27
2022-09-20T20:58:18.015Z,5.60
2022-09-20T21:00:21.201Z,4.80
2022-09-20T21:02:38.150Z,4.30
2022-09-20T21:04:41.169Z,4.80
2022-09-20T21:06:44.101Z,4.83
2022-09-20T21:08:50.008Z,5.10
2022-09-20T21:10:53.507Z,5.17
2022-09-20T21:12:56.438Z,5.50
2022-09-20T21:14:59.389Z,5.00
2022-09-20T21:17:02.911Z,5.80
2022-09-20T21:19:07.031Z,5.43
2022-09-20T21:21:17.935Z,5.10
2022-09-20T21:23:20.868Z,5.60
2022-09-20T21:25:25.163Z,6.17
2022-09-20T21:27:29.645Z,4.83
2022-09-20T21:29:32.791Z,6.73
2022-09-20T21:31:37.864Z,6.93
2022-09-20T21:33:42.329Z,5.70
2022-09-20T21:35:45.271Z,5.30
2022-09-20T21:37:48.451Z,5.87
2022-09-20T21:39:51.345Z,5.60
2022-09-20T21:41:56.071Z,5.97
2022-09-20T21:44:00.086Z,5.10
2022-09-20T21:46:03.988Z,5.17
2022-09-20T21:48:07.703Z,7.50
2022-09-20T21:50:10.883Z,4.87
2022-09-20T21:52:14.089Z,5.30
2022-09-20T21:54:16.966Z,4.10
2022-09-20T21:56:20.047Z,5.20
2022-09-20T21:58:24.306Z,3.40
2022-09-20T22:00:27.441Z,3.70
2022-09-20T22:02:30.406Z,4.80
2022-09-20T22:04:33.328Z,4.00
2022-09-20T22:06:37.623Z,4.40
2022-09-20T22:08:42.416Z,3.80
2022-09-20T22:10:45.418Z,3.20
2022-09-20T22:12:48.922Z,3.90
2022-09-20T22:14:53.326Z,4.10
2022-09-20T22:16:56.212Z,4.40
2022-09-20T22:19:00.485Z,4.20
2022-09-20T22:21:05.086Z,5.90
2022-09-20T22:23:08.387Z,4.90
2022-09-20T22:25:11.326Z,5.93
2022-09-20T22:27:14.206Z,5.47
2022-09-20T22:29:17.177Z,4.83
2022-09-20T22:31:23.014Z,5.70
2022-09-20T22:33:26.350Z,5.30
2022-09-20T22:35:29.657Z,6.53
2022-09-20T22:37:32.640Z,7.20
2022-09-20T22:39:35.687Z,7.60
2022-09-20T22:41:41.036Z,7.23
2022-09-20T22:43:44.141Z,7.43
2022-09-20T22:45:47.206Z,7.50
2022-09-20T22:47:51.592Z,8.03
2022-09-20T22:49:54.456Z,7.87
2022-09-20T22:51:57.521Z,5.90
2022-09-20T22:54:00.498Z,5.40
2022-09-20T22:56:08.408Z,5.27
2022-09-20T22:58:11.827Z,6.10
2022-09-20T23:00:15.702Z,4.30
2022-09-20T23:02:18.598Z,4.10
2022-09-20T23:04:23.341Z,4.60
2022-09-20T23:06:28.429Z,5.10
2022-09-20T23:08:34.873Z,4.70
2022-09-20T23:10:37.909Z,3.87
2022-09-20T23:12:40.830Z,5.00
2022-09-20T23:14:44.392Z,5.17
2022-09-20T23:16:48.279Z,5.43
2022-09-20T23:18:52.785Z,4.80
2022-09-20T23:21:03.293Z,4.97
2022-09-20T23:23:06.231Z,4.33
2022-09-20T23:25:10.109Z,4.63
2022-09-20T23:27:14.617Z,4.40
2022-09-20T23:29:18.114Z,4.10
2022-09-20T23:31:21.500Z,5.60
2022-09-20T23:33:24.601Z,4.43
2022-09-20T23:35:27.517Z,4.20
2022-09-20T23:37:32.038Z,4.60
2022-09-20T23:39:35.005Z,3.60
2022-09-20T23:41:38.572Z,3.87
2022-09-20T23:43:42.704Z,4.20
2022-09-20T23:45:45.652Z,3.67
2022-09-20T23:47:48.837Z,3.50
2022-09-20T23:49:51.672Z,2.50
2022-09-20T23:51:55.010Z,2.87
2022-09-20T23:53:59.795Z,2.83
2022-09-20T23:56:03.403Z,3.20
2022-09-20T23:58:06.365Z,3.80
